This is the latest recevied weather packets stored in our database for station/object XE2KK-10. If no packets are shown the sender has not sent any weather packets the latest 10 day(s).
| Time | Temp. | Humidity | Pressure | Rain* | Wind** | Luminosity | Snow |
|---|---|---|---|---|---|---|---|
| 1777406053 | 35.56° C | 43% | 1010.4 hPa | 0 mm | - | 763 W/m² | - |
| 1777404853 | 35° C | 47% | 1010.9 hPa | 0 mm | - | 768 W/m² | - |
| 1777404553 | 35° C | 47% | 1011 hPa | 0 mm | - | 743 W/m² | - |
| 1777404253 | 35° C | 46% | 1011 hPa | 0 mm | - | 717 W/m² | - |
| 1777403952 | 35.56° C | 46% | 1011.5 hPa | 0 mm | - | 724 W/m² | - |
| 1777403053 | 34.44° C | 49% | 1011.4 hPa | 0 mm | - | 698 W/m² | - |
| 1777401253 | 33.33° C | 53% | 1011.9 hPa | 0 mm | - | 792 W/m² | - |
| 1777400953 | 33.33° C | 52% | 1011.8 hPa | 0 mm | - | 786 W/m² | - |
| 1777400352 | 32.78° C | 55% | 1011.9 hPa | 0 mm | - | 827 W/m² | - |
| 1777400052 | 32.78° C | 54% | 1012.2 hPa | 0 mm | - | 805 W/m² | - |
| 1777399453 | 32.78° C | 56% | 1012.5 hPa | 0 mm | - | 779 W/m² | - |
| 1777399153 | 31.67° C | 57% | 1012.7 hPa | 0 mm | - | 798 W/m² | - |
| 1777397953 | 31.67° C | 59% | 1012.5 hPa | 0 mm | - | 766 W/m² | - |
| 1777397652 | 30.56° C | 63% | 1012.7 hPa | 0 mm | - | 752 W/m² | - |
| 1777397358 | 30.56° C | 62% | 1013 hPa | 0 mm | - | 743 W/m² | - |
| 1777397352 | 30.56° C | 62% | 1013 hPa | 0 mm | - | 743 W/m² | - |
| 1777396753 | 31.11° C | 60% | 1012.8 hPa | 0 mm | - | 737 W/m² | - |
| 1777396453 | 30.56° C | 63% | 1013.2 hPa | 0 mm | - | 764 W/m² | - |
| 1777396153 | 30.56° C | 64% | 1013.2 hPa | 0 mm | - | 735 W/m² | - |
| 1777395552 | 30° C | 66% | 1013.2 hPa | 0 mm | - | 655 W/m² | - |
| 1777394953 | 29.44° C | 68% | 1013.5 hPa | 0 mm | - | 693 W/m² | - |
| 1777394353 | 30° C | 68% | 1013.4 hPa | 0 mm | - | 566 W/m² | - |
| 1777394102 | 29.44° C | 68% | 1013.5 hPa | 0 mm | - | 600 W/m² | - |
| 1777394053 | 29.44° C | 68% | 1013.5 hPa | 0 mm | - | 600 W/m² | - |
| 1777393753 | 29.44° C | 68% | 1013.6 hPa | 0 mm | - | 714 W/m² | - |
* Rain latest hour (hover to see other rain measurements)
** Current wind speed in m/s (hover to see current wind gust speed)